createdAt,value
2022-08-26T00:02:26.048Z,22.40
2022-08-26T00:04:54.114Z,22.40
2022-08-26T00:07:21.450Z,22.40
2022-08-26T00:09:49.015Z,22.40
2022-08-26T00:12:17.796Z,22.40
2022-08-26T00:14:44.873Z,22.40
2022-08-26T00:17:12.126Z,22.30
2022-08-26T00:19:40.087Z,22.30
2022-08-26T00:22:07.434Z,22.30
2022-08-26T00:24:34.891Z,22.30
2022-08-26T00:27:02.017Z,22.30
2022-08-26T00:29:29.399Z,22.30
2022-08-26T00:31:58.960Z,22.30
2022-08-26T00:34:25.936Z,22.30
2022-08-26T00:36:52.893Z,22.30
2022-08-26T00:39:20.409Z,22.30
2022-08-26T00:41:47.798Z,22.30
2022-08-26T00:44:14.787Z,22.20
2022-08-26T00:46:46.762Z,22.20
2022-08-26T00:49:26.873Z,22.10
2022-08-26T00:51:58.020Z,22.10
2022-08-26T00:54:27.528Z,22.00
2022-08-26T00:57:02.746Z,22.00
2022-08-26T00:59:32.728Z,22.00
2022-08-26T01:02:00.331Z,22.00
2022-08-26T01:04:29.932Z,21.90
2022-08-26T01:06:57.787Z,21.90
2022-08-26T01:09:24.768Z,22.00
2022-08-26T01:11:53.168Z,21.90
2022-08-26T01:14:20.290Z,21.90
2022-08-26T01:16:47.720Z,21.90
2022-08-26T01:19:23.606Z,21.90
2022-08-26T01:21:55.994Z,21.90
2022-08-26T01:24:26.159Z,21.90
2022-08-26T01:26:56.858Z,21.90
2022-08-26T01:29:23.912Z,21.80
2022-08-26T01:31:55.410Z,21.80
2022-08-26T01:34:25.561Z,21.80
2022-08-26T01:36:54.627Z,21.80
2022-08-26T01:39:21.917Z,21.80
2022-08-26T01:41:53.508Z,21.80
2022-08-26T01:44:22.746Z,21.70
2022-08-26T01:46:49.921Z,21.70
2022-08-26T01:49:18.283Z,21.70
2022-08-26T01:51:45.235Z,21.60
2022-08-26T01:54:13.908Z,21.60
2022-08-26T01:56:41.067Z,21.60
2022-08-26T01:59:09.443Z,21.60
2022-08-26T02:01:37.828Z,21.60
2022-08-26T02:04:24.867Z,21.60
2022-08-26T02:06:52.357Z,21.60
2022-08-26T02:09:19.398Z,21.50
2022-08-26T02:11:47.362Z,21.50
2022-08-26T02:14:23.379Z,21.50
2022-08-26T02:16:54.059Z,21.50
2022-08-26T02:19:22.059Z,21.50
2022-08-26T02:21:55.656Z,21.50
2022-08-26T02:24:23.624Z,21.50
2022-08-26T02:26:54.537Z,21.50
2022-08-26T02:29:33.088Z,21.60
2022-08-26T02:32:00.050Z,21.60
2022-08-26T02:34:28.262Z,21.60
2022-08-26T02:37:01.439Z,21.50
2022-08-26T02:39:29.697Z,21.50
2022-08-26T02:41:58.658Z,21.50
2022-08-26T02:44:27.046Z,21.60
2022-08-26T02:46:54.775Z,21.60
2022-08-26T02:49:22.570Z,21.60
2022-08-26T02:51:52.932Z,21.50
2022-08-26T02:54:25.265Z,21.50
2022-08-26T02:56:52.424Z,21.50
2022-08-26T02:59:19.555Z,21.50
2022-08-26T03:01:51.689Z,21.50
2022-08-26T03:04:18.685Z,21.40
2022-08-26T03:06:47.044Z,21.40
2022-08-26T03:09:19.990Z,21.30
2022-08-26T03:11:47.511Z,21.30
2022-08-26T03:14:14.677Z,21.30
2022-08-26T03:16:41.753Z,21.30
2022-08-26T03:19:08.869Z,21.30
2022-08-26T03:21:36.184Z,21.30
2022-08-26T03:24:03.571Z,21.30
2022-08-26T03:26:30.892Z,21.20
2022-08-26T03:29:16.704Z,21.20
2022-08-26T03:31:47.025Z,21.20
2022-08-26T03:34:14.442Z,21.20
2022-08-26T03:36:41.746Z,21.20
2022-08-26T03:39:08.694Z,21.20
2022-08-26T03:41:37.693Z,21.10
2022-08-26T03:44:05.455Z,21.10
2022-08-26T03:46:35.585Z,21.10
2022-08-26T03:49:05.590Z,21.00
2022-08-26T03:51:32.837Z,21.00
2022-08-26T03:54:03.111Z,21.00
2022-08-26T03:56:30.588Z,21.00
2022-08-26T03:58:57.639Z,21.00
2022-08-26T04:01:25.651Z,21.00
2022-08-26T04:04:00.248Z,21.00
2022-08-26T04:06:27.793Z,21.00
2022-08-26T04:08:56.206Z,21.00
2022-08-26T04:11:24.675Z,21.00
2022-08-26T04:13:52.135Z,20.90
2022-08-26T04:16:20.475Z,20.90
2022-08-26T04:18:47.965Z,20.90
2022-08-26T04:21:15.374Z,20.80
2022-08-26T04:23:47.844Z,20.80
2022-08-26T04:26:16.129Z,20.80
2022-08-26T04:29:03.256Z,20.80
2022-08-26T04:31:30.895Z,20.80
2022-08-26T04:33:58.139Z,20.90
2022-08-26T04:36:26.296Z,20.90
2022-08-26T04:38:55.057Z,20.90
2022-08-26T04:41:22.177Z,20.90
2022-08-26T04:43:49.479Z,21.00
2022-08-26T04:46:18.272Z,21.00
2022-08-26T04:48:46.183Z,21.10
2022-08-26T04:51:13.135Z,21.10
2022-08-26T04:53:40.129Z,21.20
2022-08-26T04:56:08.706Z,21.10
2022-08-26T04:58:38.867Z,21.10
2022-08-26T05:01:06.015Z,21.20
2022-08-26T05:03:33.270Z,21.20
2022-08-26T05:06:00.344Z,21.30
2022-08-26T05:08:27.743Z,21.30
2022-08-26T05:10:57.653Z,21.40
2022-08-26T05:13:25.976Z,21.50
2022-08-26T05:15:53.119Z,21.60
2022-08-26T05:18:23.605Z,21.60
2022-08-26T05:20:51.592Z,21.70
2022-08-26T05:23:23.280Z,21.80
2022-08-26T05:25:50.595Z,21.90
2022-08-26T05:28:18.040Z,22.00
2022-08-26T05:30:45.072Z,22.00
2022-08-26T05:33:12.135Z,22.00
2022-08-26T05:35:39.939Z,22.00
2022-08-26T05:38:12.237Z,22.00
2022-08-26T05:40:41.074Z,22.10
2022-08-26T05:43:11.694Z,22.20
2022-08-26T05:45:43.540Z,22.30
2022-08-26T05:48:13.105Z,22.30
2022-08-26T05:50:46.943Z,22.40
2022-08-26T05:53:14.291Z,22.50
2022-08-26T05:55:48.379Z,22.50
2022-08-26T05:58:15.580Z,22.50
2022-08-26T06:00:46.530Z,22.60
2022-08-26T06:03:13.454Z,22.70
2022-08-26T06:05:40.751Z,22.70
2022-08-26T06:08:19.211Z,22.80
2022-08-26T06:10:51.202Z,22.90
2022-08-26T06:13:20.090Z,23.00
2022-08-26T06:15:48.133Z,23.10
2022-08-26T06:18:16.162Z,23.20
2022-08-26T06:20:57.456Z,23.30
2022-08-26T06:23:44.555Z,23.30
2022-08-26T06:26:11.576Z,23.40
2022-08-26T06:28:38.555Z,23.50
2022-08-26T06:31:06.390Z,23.70
2022-08-26T06:33:33.791Z,23.80
2022-08-26T06:36:01.629Z,23.90
2022-08-26T06:38:28.876Z,23.90
2022-08-26T06:40:59.362Z,24.20
2022-08-26T06:43:27.370Z,24.30
2022-08-26T06:46:05.939Z,24.40
2022-08-26T06:48:34.477Z,24.50
2022-08-26T06:51:05.440Z,24.60
2022-08-26T06:53:32.458Z,24.70
2022-08-26T06:55:59.426Z,24.80
2022-08-26T06:58:26.359Z,25.00
2022-08-26T07:00:53.466Z,25.10
2022-08-26T07:03:22.301Z,25.20
2022-08-26T07:05:49.534Z,25.40
2022-08-26T07:08:22.772Z,25.60
2022-08-26T07:10:51.028Z,25.90
2022-08-26T07:13:30.784Z,26.20
2022-08-26T07:15:58.304Z,26.40
2022-08-26T07:18:31.412Z,26.60
2022-08-26T07:20:59.057Z,26.80
2022-08-26T07:23:26.442Z,26.90
2022-08-26T07:25:54.850Z,27.00
2022-08-26T07:28:23.112Z,27.20
2022-08-26T07:30:50.224Z,27.40
2022-08-26T07:33:18.512Z,27.70
2022-08-26T07:35:46.518Z,27.80
2022-08-26T07:38:13.890Z,28.00
2022-08-26T07:40:41.385Z,28.10
2022-08-26T07:43:10.093Z,28.20
2022-08-26T07:45:37.424Z,28.20
2022-08-26T07:48:05.525Z,28.20
2022-08-26T07:50:48.848Z,28.40
2022-08-26T07:53:18.224Z,28.50
2022-08-26T07:55:46.972Z,28.60
2022-08-26T07:58:15.544Z,28.80
2022-08-26T08:00:42.806Z,29.00
2022-08-26T08:03:10.407Z,28.90
2022-08-26T08:05:37.633Z,28.80
2022-08-26T08:08:27.223Z,28.80
2022-08-26T08:10:55.751Z,28.90
2022-08-26T08:13:23.000Z,29.00
2022-08-26T08:15:50.653Z,29.10
2022-08-26T08:18:20.473Z,29.30
2022-08-26T08:21:04.803Z,29.40
2022-08-26T08:23:35.668Z,29.50
2022-08-26T08:26:03.516Z,29.70
2022-08-26T08:28:30.607Z,29.90
2022-08-26T08:30:58.435Z,30.00
2022-08-26T08:33:26.806Z,30.00
2022-08-26T08:35:54.905Z,30.20
2022-08-26T08:38:21.935Z,30.30
2022-08-26T08:40:49.075Z,30.30
2022-08-26T08:43:37.619Z,30.50
2022-08-26T08:46:08.595Z,30.50
2022-08-26T08:48:37.371Z,30.60
2022-08-26T08:51:07.998Z,30.60
2022-08-26T08:53:37.707Z,30.70
2022-08-26T08:56:04.818Z,31.00
2022-08-26T08:58:47.157Z,31.10
2022-08-26T09:01:35.269Z,31.10
2022-08-26T09:04:25.747Z,31.20
2022-08-26T09:06:54.127Z,31.30
2022-08-26T09:09:23.498Z,31.40
2022-08-26T09:11:50.512Z,31.40
2022-08-26T09:14:33.962Z,31.60
2022-08-26T09:17:14.413Z,31.80
2022-08-26T09:19:47.169Z,31.90
2022-08-26T09:22:27.550Z,32.00
2022-08-26T09:24:54.491Z,32.20
2022-08-26T09:27:38.899Z,32.20
2022-08-26T09:30:07.181Z,32.30
2022-08-26T09:32:40.374Z,32.60
2022-08-26T09:35:09.446Z,32.80
2022-08-26T09:40:16.584Z,33.10
2022-08-26T09:42:44.321Z,33.10
2022-08-26T09:45:12.948Z,33.20
2022-08-26T09:47:41.739Z,33.20
2022-08-26T09:50:29.202Z,33.30
2022-08-26T09:53:09.838Z,33.40
2022-08-26T09:55:42.969Z,33.50
2022-08-26T09:58:13.820Z,33.70
2022-08-26T10:00:42.361Z,33.70
2022-08-26T10:03:17.359Z,33.70
2022-08-26T10:05:56.936Z,33.90
2022-08-26T10:08:28.777Z,34.10
2022-08-26T10:10:57.135Z,34.20
2022-08-26T10:13:26.017Z,34.30
2022-08-26T10:16:04.347Z,34.40
2022-08-26T10:18:41.121Z,34.60
2022-08-26T10:21:12.339Z,34.40
2022-08-26T10:26:13.719Z,34.50
2022-08-26T10:28:44.212Z,34.50
2022-08-26T10:31:27.481Z,34.70
2022-08-26T10:34:00.126Z,34.90
2022-08-26T10:37:10.837Z,35.00
2022-08-26T10:39:58.627Z,34.90
2022-08-26T10:42:37.747Z,35.00
2022-08-26T10:45:11.786Z,34.90
2022-08-26T10:47:49.827Z,35.20
2022-08-26T10:50:18.141Z,35.40
2022-08-26T10:52:58.417Z,35.60
2022-08-26T10:55:30.744Z,35.70
2022-08-26T10:58:26.653Z,35.70
2022-08-26T11:01:16.840Z,35.70
2022-08-26T11:03:49.842Z,35.70
2022-08-26T11:06:24.723Z,36.00
2022-08-26T11:08:53.308Z,36.10
2022-08-26T11:11:38.897Z,36.30
2022-08-26T11:14:07.027Z,36.40
2022-08-26T11:16:34.426Z,36.40
2022-08-26T11:19:02.223Z,36.20
2022-08-26T11:21:49.413Z,36.30
2022-08-26T11:24:38.384Z,36.60
2022-08-26T11:27:09.086Z,36.90
2022-08-26T11:30:03.778Z,37.10
2022-08-26T11:32:33.994Z,37.20
2022-08-26T11:35:02.702Z,37.10
2022-08-26T11:37:32.543Z,37.10
2022-08-26T11:40:01.352Z,36.90
2022-08-26T11:42:41.677Z,36.90
2022-08-26T11:45:16.060Z,36.90
2022-08-26T11:47:43.349Z,37.00
2022-08-26T11:50:12.484Z,37.10
2022-08-26T11:52:40.758Z,37.00
2022-08-26T11:55:09.568Z,36.90
2022-08-26T11:57:41.417Z,36.90
2022-08-26T12:00:14.308Z,36.80
2022-08-26T12:02:43.816Z,36.80
2022-08-26T12:05:12.439Z,36.80
2022-08-26T12:07:42.522Z,36.80
2022-08-26T12:10:10.231Z,36.80
2022-08-26T12:12:40.952Z,36.80
2022-08-26T12:15:14.299Z,36.80
2022-08-26T12:17:42.315Z,36.80
2022-08-26T12:20:31.060Z,36.90
2022-08-26T12:23:01.504Z,37.10
2022-08-26T12:25:28.776Z,37.40
2022-08-26T12:28:09.279Z,37.50
2022-08-26T12:30:44.556Z,37.50
2022-08-26T12:33:21.897Z,37.60
2022-08-26T12:35:54.832Z,37.70
2022-08-26T12:38:24.634Z,37.80
2022-08-26T12:40:51.929Z,37.80
2022-08-26T12:43:37.466Z,37.70
2022-08-26T12:46:06.769Z,37.60
2022-08-26T12:48:36.396Z,37.50
2022-08-26T12:51:03.558Z,37.50
2022-08-26T12:53:32.789Z,37.40
2022-08-26T12:56:00.802Z,37.40
2022-08-26T12:58:29.195Z,37.30
2022-08-26T13:01:28.697Z,37.10
2022-08-26T13:03:56.484Z,36.90
2022-08-26T13:06:23.836Z,36.90
2022-08-26T13:09:14.902Z,36.90
2022-08-26T13:11:47.832Z,36.90
2022-08-26T13:14:21.242Z,36.90
2022-08-26T13:16:51.517Z,36.80
2022-08-26T13:19:22.628Z,36.70
2022-08-26T13:21:50.900Z,36.70
2022-08-26T13:24:19.959Z,36.70
2022-08-26T13:26:51.906Z,36.70
2022-08-26T13:29:18.944Z,36.70
2022-08-26T13:31:45.993Z,36.80
2022-08-26T13:34:14.413Z,36.80
2022-08-26T13:36:45.063Z,36.90
2022-08-26T13:39:12.555Z,36.90
2022-08-26T13:41:39.804Z,36.90
2022-08-26T13:44:07.190Z,36.90
2022-08-26T13:46:35.182Z,36.70
2022-08-26T13:49:03.915Z,36.50
2022-08-26T13:51:31.184Z,36.20
2022-08-26T13:53:59.083Z,35.90
2022-08-26T13:56:27.771Z,35.70
2022-08-26T13:58:55.499Z,35.50
2022-08-26T14:01:22.768Z,35.40
2022-08-26T14:03:49.851Z,35.30
2022-08-26T14:06:17.065Z,35.20
2022-08-26T14:08:44.407Z,35.00
2022-08-26T14:11:11.514Z,34.80
2022-08-26T14:13:40.618Z,34.70
2022-08-26T14:16:11.153Z,34.80
2022-08-26T14:18:42.550Z,34.80
2022-08-26T14:21:15.628Z,34.90
2022-08-26T14:23:44.011Z,35.10
2022-08-26T14:26:14.282Z,35.20
2022-08-26T14:28:55.532Z,35.20
2022-08-26T14:31:24.293Z,35.20
2022-08-26T14:33:51.675Z,35.20
2022-08-26T14:36:34.472Z,35.20
2022-08-26T14:39:10.517Z,35.10
2022-08-26T14:41:54.696Z,35.00
2022-08-26T14:44:23.069Z,34.80
2022-08-26T14:46:50.765Z,34.60
2022-08-26T14:49:18.473Z,34.50
2022-08-26T14:51:45.691Z,34.40
2022-08-26T14:54:13.186Z,34.40
2022-08-26T14:56:42.027Z,34.40
2022-08-26T14:59:09.201Z,34.40
2022-08-26T15:01:36.851Z,34.50
2022-08-26T15:04:04.055Z,34.50
2022-08-26T15:06:32.107Z,34.50
2022-08-26T15:08:59.879Z,34.60
2022-08-26T15:11:27.190Z,34.60
2022-08-26T15:13:54.515Z,34.60
2022-08-26T15:16:22.587Z,34.60
2022-08-26T15:18:54.803Z,34.50
2022-08-26T15:21:22.319Z,34.50
2022-08-26T15:23:49.439Z,34.30
2022-08-26T15:26:16.543Z,34.20
2022-08-26T15:28:43.603Z,34.20
2022-08-26T15:31:10.793Z,34.10
2022-08-26T15:33:38.070Z,34.10
2022-08-26T15:36:06.837Z,34.10
2022-08-26T15:38:34.767Z,34.00
2022-08-26T15:41:03.207Z,33.90
2022-08-26T15:43:30.511Z,33.80
2022-08-26T15:45:58.063Z,33.80
2022-08-26T15:48:25.193Z,33.70
2022-08-26T15:50:53.863Z,33.60
2022-08-26T15:53:23.003Z,33.60
2022-08-26T15:55:50.393Z,33.50
2022-08-26T15:58:17.519Z,33.40
2022-08-26T16:00:45.252Z,33.40
2022-08-26T16:03:12.402Z,33.30
2022-08-26T16:05:43.818Z,33.30
2022-08-26T16:08:11.122Z,33.20
2022-08-26T16:10:39.886Z,33.20
2022-08-26T16:13:08.449Z,33.10
2022-08-26T16:15:37.913Z,33.00
2022-08-26T16:18:06.237Z,33.00
2022-08-26T16:20:34.146Z,32.90
2022-08-26T16:23:01.701Z,32.90
2022-08-26T16:25:29.856Z,32.70
2022-08-26T16:27:58.744Z,32.70
2022-08-26T16:30:26.833Z,32.60
2022-08-26T16:32:55.763Z,32.60
2022-08-26T16:35:23.778Z,32.50
2022-08-26T16:37:51.033Z,32.40
2022-08-26T16:40:18.526Z,32.40
2022-08-26T16:42:45.878Z,32.40
2022-08-26T16:45:12.973Z,32.30
2022-08-26T16:47:40.766Z,32.20
2022-08-26T16:50:09.958Z,32.20
2022-08-26T16:52:39.788Z,32.10
2022-08-26T16:55:14.145Z,32.10
2022-08-26T16:57:42.074Z,32.00
2022-08-26T17:00:17.719Z,31.90
2022-08-26T17:02:47.562Z,31.80
2022-08-26T17:05:14.849Z,31.70
2022-08-26T17:07:41.829Z,31.60
2022-08-26T17:10:09.209Z,31.50
2022-08-26T17:12:36.618Z,31.40
2022-08-26T17:15:04.813Z,31.40
2022-08-26T17:17:31.779Z,31.30
2022-08-26T17:20:00.437Z,31.20
2022-08-26T17:22:31.517Z,31.10
2022-08-26T17:25:01.099Z,31.00
2022-08-26T17:27:28.149Z,30.90
2022-08-26T17:29:55.195Z,30.90
2022-08-26T17:32:24.292Z,30.70
2022-08-26T17:34:55.982Z,30.70
2022-08-26T17:37:23.095Z,30.50
2022-08-26T17:39:53.438Z,30.50
2022-08-26T17:42:20.410Z,30.40
2022-08-26T17:44:49.330Z,30.20
2022-08-26T17:47:16.980Z,30.20
2022-08-26T17:49:44.132Z,30.10
2022-08-26T17:52:11.643Z,30.00
2022-08-26T17:54:39.542Z,29.90
2022-08-26T17:57:06.565Z,29.80
2022-08-26T17:59:42.227Z,29.70
2022-08-26T18:02:09.910Z,29.60
2022-08-26T18:04:36.800Z,29.50
2022-08-26T18:07:04.047Z,29.50
2022-08-26T18:09:31.815Z,29.40
2022-08-26T18:11:59.232Z,29.30
2022-08-26T18:14:34.549Z,29.30
2022-08-26T18:17:05.499Z,29.20
2022-08-26T18:19:32.690Z,29.20
2022-08-26T18:21:59.811Z,29.10
2022-08-26T18:24:35.909Z,29.00
2022-08-26T18:27:03.013Z,28.90
2022-08-26T18:29:30.099Z,28.90
2022-08-26T18:31:58.159Z,28.80
2022-08-26T18:34:31.796Z,28.80
2022-08-26T18:36:59.207Z,28.70
2022-08-26T18:39:26.158Z,28.60
2022-08-26T18:41:53.510Z,28.60
2022-08-26T18:44:21.616Z,28.50
2022-08-26T18:46:49.803Z,28.50
2022-08-26T18:49:18.447Z,28.50
2022-08-26T18:51:45.526Z,28.40
2022-08-26T18:54:13.158Z,28.30
2022-08-26T18:56:40.606Z,28.30
2022-08-26T18:59:07.686Z,28.10
2022-08-26T19:01:35.567Z,28.10
2022-08-26T19:04:04.302Z,28.00
2022-08-26T19:06:33.077Z,27.90
2022-08-26T19:09:00.937Z,27.90
2022-08-26T19:11:32.401Z,27.90
2022-08-26T19:14:07.847Z,27.80
2022-08-26T19:16:34.953Z,27.80
2022-08-26T19:19:02.279Z,27.70
2022-08-26T19:21:29.400Z,27.60
2022-08-26T19:23:57.543Z,27.60
2022-08-26T19:26:24.938Z,27.50
2022-08-26T19:28:53.206Z,27.50
2022-08-26T19:31:20.273Z,27.30
2022-08-26T19:33:47.217Z,27.20
2022-08-26T19:36:22.231Z,27.10
2022-08-26T19:38:50.430Z,27.10
2022-08-26T19:41:20.895Z,27.00
2022-08-26T19:43:47.950Z,27.00
2022-08-26T19:46:17.465Z,27.00
2022-08-26T19:48:45.017Z,27.00
2022-08-26T19:51:15.858Z,27.00
2022-08-26T19:53:44.104Z,27.00
2022-08-26T19:56:11.525Z,26.90
2022-08-26T19:58:38.661Z,26.90
2022-08-26T20:01:06.123Z,26.90
2022-08-26T20:03:33.543Z,26.80
2022-08-26T20:06:00.764Z,26.70
2022-08-26T20:08:28.806Z,26.80
2022-08-26T20:10:57.908Z,26.70
2022-08-26T20:13:24.950Z,26.60
2022-08-26T20:15:51.938Z,26.50
2022-08-26T20:18:37.432Z,26.40
2022-08-26T20:21:23.162Z,26.40
2022-08-26T20:23:51.791Z,26.40
2022-08-26T20:26:18.862Z,26.40
2022-08-26T20:28:46.259Z,26.30
2022-08-26T20:31:15.103Z,26.30
2022-08-26T20:33:46.455Z,26.30
2022-08-26T20:36:17.206Z,26.30
2022-08-26T20:38:45.534Z,26.30
2022-08-26T20:41:12.741Z,26.30
2022-08-26T20:43:43.534Z,26.20
2022-08-26T20:46:18.042Z,26.20
2022-08-26T20:48:47.960Z,26.10
2022-08-26T20:51:15.515Z,26.00
2022-08-26T20:53:42.895Z,25.90
2022-08-26T20:56:12.837Z,25.90
2022-08-26T20:58:41.164Z,25.80
2022-08-26T21:01:09.175Z,25.70
2022-08-26T21:03:36.599Z,25.70
2022-08-26T21:06:03.941Z,25.60
2022-08-26T21:08:33.104Z,25.60
2022-08-26T21:11:00.780Z,25.60
2022-08-26T21:13:35.827Z,25.50
2022-08-26T21:16:10.407Z,25.50
2022-08-26T21:18:37.743Z,25.50
2022-08-26T21:21:05.349Z,25.40
2022-08-26T21:23:33.132Z,25.30
2022-08-26T21:26:08.275Z,25.20
2022-08-26T21:28:35.601Z,25.10
2022-08-26T21:31:03.983Z,25.10
2022-08-26T21:33:31.164Z,25.10
2022-08-26T21:35:58.151Z,25.00
2022-08-26T21:38:25.201Z,25.00
2022-08-26T21:41:24.407Z,24.90
2022-08-26T21:43:51.846Z,24.90
2022-08-26T21:46:19.660Z,24.90
2022-08-26T21:48:50.730Z,24.90
2022-08-26T21:51:18.824Z,24.90
2022-08-26T21:53:45.878Z,24.80
2022-08-26T21:56:13.375Z,24.80
2022-08-26T21:58:40.406Z,24.80
2022-08-26T22:01:14.334Z,24.80
2022-08-26T22:03:46.632Z,24.80
2022-08-26T22:06:18.058Z,24.80
2022-08-26T22:08:46.066Z,24.80
2022-08-26T22:11:13.526Z,24.80
2022-08-26T22:13:40.699Z,24.80
2022-08-26T22:16:07.922Z,24.80
2022-08-26T22:18:35.079Z,24.80
2022-08-26T22:21:09.822Z,24.70
2022-08-26T22:23:37.125Z,24.70
2022-08-26T22:26:04.795Z,24.60
2022-08-26T22:28:32.074Z,24.60
2022-08-26T22:30:59.110Z,24.50
2022-08-26T22:33:26.261Z,24.50
2022-08-26T22:35:53.486Z,24.40
2022-08-26T22:38:20.787Z,24.40
2022-08-26T22:40:49.731Z,24.40
2022-08-26T22:43:20.781Z,24.40
2022-08-26T22:45:48.180Z,24.30
2022-08-26T22:48:16.829Z,24.30
2022-08-26T22:50:44.195Z,24.20
2022-08-26T22:53:11.140Z,24.20
2022-08-26T22:55:38.191Z,24.20
2022-08-26T22:58:07.850Z,24.20
2022-08-26T23:00:35.000Z,24.10
2022-08-26T23:03:02.267Z,24.20
2022-08-26T23:05:29.874Z,24.20
2022-08-26T23:07:57.166Z,24.20
2022-08-26T23:10:24.494Z,24.10
2022-08-26T23:12:52.943Z,24.20
2022-08-26T23:15:20.299Z,24.20
2022-08-26T23:17:47.439Z,24.20
2022-08-26T23:20:24.077Z,24.10
2022-08-26T23:22:51.148Z,24.00
2022-08-26T23:25:18.332Z,24.10
2022-08-26T23:27:45.551Z,24.10
2022-08-26T23:30:15.732Z,24.00
2022-08-26T23:32:42.745Z,24.00
2022-08-26T23:35:10.121Z,23.90
2022-08-26T23:37:44.344Z,23.90
2022-08-26T23:40:17.366Z,23.90
2022-08-26T23:42:44.642Z,23.80
2022-08-26T23:45:13.035Z,23.80
2022-08-26T23:47:40.236Z,23.80
2022-08-26T23:50:07.486Z,23.80
2022-08-26T23:52:53.196Z,23.70
2022-08-26T23:55:20.166Z,23.70
2022-08-26T23:57:47.254Z,23.70
